sensor_id;sensor_type;location;lat;lon;timestamp;temperature;humidity
7030;DHT22;3556;53.500;10.176;2022-09-21T00:01:28;6.50;99.90
7030;DHT22;3556;53.500;10.176;2022-09-21T00:03:58;6.50;99.90
7030;DHT22;3556;53.500;10.176;2022-09-21T00:06:26;6.40;99.90
7030;DHT22;3556;53.500;10.176;2022-09-21T00:08:52;6.40;99.90
7030;DHT22;3556;53.500;10.176;2022-09-21T00:11:24;6.40;99.90
7030;DHT22;3556;53.500;10.176;2022-09-21T00:13:55;6.40;99.90
7030;DHT22;3556;53.500;10.176;2022-09-21T00:16:22;6.40;99.90
7030;DHT22;3556;53.500;10.176;2022-09-21T00:18:48;6.40;99.90
7030;DHT22;3556;53.500;10.176;2022-09-21T00:21:15;6.40;99.90
7030;DHT22;3556;53.500;10.176;2022-09-21T00:23:41;6.40;99.90
7030;DHT22;3556;53.500;10.176;2022-09-21T00:26:11;6.30;99.90
7030;DHT22;3556;53.500;10.176;2022-09-21T00:28:37;6.30;99.90
7030;DHT22;3556;53.500;10.176;2022-09-21T00:31:08;6.30;99.90
7030;DHT22;3556;53.500;10.176;2022-09-21T00:33:38;6.30;99.90
7030;DHT22;3556;53.500;10.176;2022-09-21T00:36:06;6.30;99.90
7030;DHT22;3556;53.500;10.176;2022-09-21T00:38:33;6.20;99.90
7030;DHT22;3556;53.500;10.176;2022-09-21T00:40:59;6.20;99.90
7030;DHT22;3556;53.500;10.176;2022-09-21T00:43:25;6.20;99.90
7030;DHT22;3556;53.500;10.176;2022-09-21T00:46:04;6.20;99.90
7030;DHT22;3556;53.500;10.176;2022-09-21T00:48:31;6.10;99.90
7030;DHT22;3556;53.500;10.176;2022-09-21T00:51:02;6.10;99.90
7030;DHT22;3556;53.500;10.176;2022-09-21T00:53:30;6.10;99.90
7030;DHT22;3556;53.500;10.176;2022-09-21T00:55:56;6.00;99.90
7030;DHT22;3556;53.500;10.176;2022-09-21T00:58:30;5.90;99.90
7030;DHT22;3556;53.500;10.176;2022-09-21T01:00:58;5.90;99.90
7030;DHT22;3556;53.500;10.176;2022-09-21T01:03:24;5.80;99.90
7030;DHT22;3556;53.500;10.176;2022-09-21T01:05:50;5.80;99.90
7030;DHT22;3556;53.500;10.176;2022-09-21T01:08:16;5.80;99.90
7030;DHT22;3556;53.500;10.176;2022-09-21T01:11:07;5.80;99.90
7030;DHT22;3556;53.500;10.176;2022-09-21T01:16:52;5.80;99.90
7030;DHT22;3556;53.500;10.176;2022-09-21T01:19:34;5.80;99.90
7030;DHT22;3556;53.500;10.176;2022-09-21T01:30:58;5.70;99.90
7030;DHT22;3556;53.500;10.176;2022-09-21T01:33:29;5.70;99.90
7030;DHT22;3556;53.500;10.176;2022-09-21T01:36:00;5.70;99.90
7030;DHT22;3556;53.500;10.176;2022-09-21T01:38:56;5.70;99.90
7030;DHT22;3556;53.500;10.176;2022-09-21T01:41:26;5.70;99.90
7030;DHT22;3556;53.500;10.176;2022-09-21T01:43:56;5.70;99.90
7030;DHT22;3556;53.500;10.176;2022-09-21T01:46:27;5.60;99.90
7030;DHT22;3556;53.500;10.176;2022-09-21T01:48:58;5.60;99.90
7030;DHT22;3556;53.500;10.176;2022-09-21T01:51:30;5.60;99.90
7030;DHT22;3556;53.500;10.176;2022-09-21T01:54:17;5.60;99.90
7030;DHT22;3556;53.500;10.176;2022-09-21T01:56:50;5.60;99.90
7030;DHT22;3556;53.500;10.176;2022-09-21T01:59:33;5.60;99.90
7030;DHT22;3556;53.500;10.176;2022-09-21T02:02:10;5.60;99.90
7030;DHT22;3556;53.500;10.176;2022-09-21T02:04:36;5.50;99.90
7030;DHT22;3556;53.500;10.176;2022-09-21T02:07:03;5.50;99.90
7030;DHT22;3556;53.500;10.176;2022-09-21T02:09:29;5.50;99.90
7030;DHT22;3556;53.500;10.176;2022-09-21T02:11:54;5.50;99.90
7030;DHT22;3556;53.500;10.176;2022-09-21T02:14:24;5.50;99.90
7030;DHT22;3556;53.500;10.176;2022-09-21T02:17:26;5.50;99.90
7030;DHT22;3556;53.500;10.176;2022-09-21T02:20:08;5.40;99.90
7030;DHT22;3556;53.500;10.176;2022-09-21T02:23:03;5.40;99.90
7030;DHT22;3556;53.500;10.176;2022-09-21T02:25:49;5.40;99.90
7030;DHT22;3556;53.500;10.176;2022-09-21T02:34:01;5.30;99.90
7030;DHT22;3556;53.500;10.176;2022-09-21T02:36:44;5.30;99.90
7030;DHT22;3556;53.500;10.176;2022-09-21T02:39:25;5.30;99.90
7030;DHT22;3556;53.500;10.176;2022-09-21T02:42:14;5.30;99.90
7030;DHT22;3556;53.500;10.176;2022-09-21T02:44:51;5.30;99.90
7030;DHT22;3556;53.500;10.176;2022-09-21T02:47:26;5.30;99.90
7030;DHT22;3556;53.500;10.176;2022-09-21T02:50:00;5.20;99.90
7030;DHT22;3556;53.500;10.176;2022-09-21T02:52:29;5.20;99.90
7030;DHT22;3556;53.500;10.176;2022-09-21T02:54:56;5.20;99.90
7030;DHT22;3556;53.500;10.176;2022-09-21T02:57:23;5.20;99.90
7030;DHT22;3556;53.500;10.176;2022-09-21T02:59:50;5.20;99.90
7030;DHT22;3556;53.500;10.176;2022-09-21T03:02:16;5.10;99.90
7030;DHT22;3556;53.500;10.176;2022-09-21T03:04:44;5.20;99.90
7030;DHT22;3556;53.500;10.176;2022-09-21T03:07:17;5.10;99.90
7030;DHT22;3556;53.500;10.176;2022-09-21T03:09:43;5.10;99.90
7030;DHT22;3556;53.500;10.176;2022-09-21T03:12:09;5.10;99.90
7030;DHT22;3556;53.500;10.176;2022-09-21T03:14:34;5.10;99.90
7030;DHT22;3556;53.500;10.176;2022-09-21T03:17:00;5.10;99.90
7030;DHT22;3556;53.500;10.176;2022-09-21T03:19:26;5.00;99.90
7030;DHT22;3556;53.500;10.176;2022-09-21T03:21:52;5.00;99.90
7030;DHT22;3556;53.500;10.176;2022-09-21T03:24:19;5.00;99.90
7030;DHT22;3556;53.500;10.176;2022-09-21T03:27:05;5.00;99.90
7030;DHT22;3556;53.500;10.176;2022-09-21T03:29:30;5.00;99.90
7030;DHT22;3556;53.500;10.176;2022-09-21T03:31:56;5.00;99.90
7030;DHT22;3556;53.500;10.176;2022-09-21T03:34:22;5.00;99.90
7030;DHT22;3556;53.500;10.176;2022-09-21T03:36:48;4.90;99.90
7030;DHT22;3556;53.500;10.176;2022-09-21T03:39:13;4.90;99.90
7030;DHT22;3556;53.500;10.176;2022-09-21T03:41:39;4.90;99.90
7030;DHT22;3556;53.500;10.176;2022-09-21T03:44:05;4.80;99.90
7030;DHT22;3556;53.500;10.176;2022-09-21T03:46:30;4.90;99.90
7030;DHT22;3556;53.500;10.176;2022-09-21T03:49:00;4.80;99.90
7030;DHT22;3556;53.500;10.176;2022-09-21T03:51:27;4.80;99.90
7030;DHT22;3556;53.500;10.176;2022-09-21T03:53:55;4.80;99.90
7030;DHT22;3556;53.500;10.176;2022-09-21T03:56:21;4.80;99.90
7030;DHT22;3556;53.500;10.176;2022-09-21T03:58:46;4.80;99.90
7030;DHT22;3556;53.500;10.176;2022-09-21T04:01:12;4.70;99.90
7030;DHT22;3556;53.500;10.176;2022-09-21T04:03:37;4.70;99.90
7030;DHT22;3556;53.500;10.176;2022-09-21T04:06:10;4.70;99.90
7030;DHT22;3556;53.500;10.176;2022-09-21T04:08:36;4.70;99.90
7030;DHT22;3556;53.500;10.176;2022-09-21T04:11:09;4.60;99.90
7030;DHT22;3556;53.500;10.176;2022-09-21T04:13:34;4.60;99.90
7030;DHT22;3556;53.500;10.176;2022-09-21T04:16:01;4.60;99.90
7030;DHT22;3556;53.500;10.176;2022-09-21T04:18:26;4.60;99.90
7030;DHT22;3556;53.500;10.176;2022-09-21T04:20:52;4.60;99.90
7030;DHT22;3556;53.500;10.176;2022-09-21T04:23:17;4.60;99.90
7030;DHT22;3556;53.500;10.176;2022-09-21T04:25:47;4.60;99.90
7030;DHT22;3556;53.500;10.176;2022-09-21T04:28:13;4.60;99.90
7030;DHT22;3556;53.500;10.176;2022-09-21T04:30:38;4.60;99.90
7030;DHT22;3556;53.500;10.176;2022-09-21T04:33:04;4.50;99.90
7030;DHT22;3556;53.500;10.176;2022-09-21T04:35:30;4.50;99.90
7030;DHT22;3556;53.500;10.176;2022-09-21T04:37:56;4.50;99.90
7030;DHT22;3556;53.500;10.176;2022-09-21T04:40:21;4.50;99.90
7030;DHT22;3556;53.500;10.176;2022-09-21T04:42:54;4.50;99.90
7030;DHT22;3556;53.500;10.176;2022-09-21T04:45:20;4.50;99.90
7030;DHT22;3556;53.500;10.176;2022-09-21T04:47:46;4.50;99.90
7030;DHT22;3556;53.500;10.176;2022-09-21T04:50:12;4.50;99.90
7030;DHT22;3556;53.500;10.176;2022-09-21T04:52:38;4.40;99.90
7030;DHT22;3556;53.500;10.176;2022-09-21T04:55:05;4.40;99.90
7030;DHT22;3556;53.500;10.176;2022-09-21T04:57:31;4.40;99.90
7030;DHT22;3556;53.500;10.176;2022-09-21T04:59:56;4.30;99.90
7030;DHT22;3556;53.500;10.176;2022-09-21T05:02:22;4.40;99.90
7030;DHT22;3556;53.500;10.176;2022-09-21T05:04:48;4.30;99.90
7030;DHT22;3556;53.500;10.176;2022-09-21T05:07:14;4.30;99.90
7030;DHT22;3556;53.500;10.176;2022-09-21T05:09:40;4.30;99.90
7030;DHT22;3556;53.500;10.176;2022-09-21T05:12:24;4.30;99.90
7030;DHT22;3556;53.500;10.176;2022-09-21T05:14:49;4.40;99.90
7030;DHT22;3556;53.500;10.176;2022-09-21T05:17:15;4.40;99.90
7030;DHT22;3556;53.500;10.176;2022-09-21T05:19:41;4.30;99.90
7030;DHT22;3556;53.500;10.176;2022-09-21T05:22:07;4.30;99.90
7030;DHT22;3556;53.500;10.176;2022-09-21T05:24:33;4.30;99.90
7030;DHT22;3556;53.500;10.176;2022-09-21T05:26:58;4.40;99.90
7030;DHT22;3556;53.500;10.176;2022-09-21T05:29:24;4.40;99.90
7030;DHT22;3556;53.500;10.176;2022-09-21T05:34:50;4.40;99.90
7030;DHT22;3556;53.500;10.176;2022-09-21T05:39:59;4.40;99.90
7030;DHT22;3556;53.500;10.176;2022-09-21T05:42:25;4.40;99.90
7030;DHT22;3556;53.500;10.176;2022-09-21T05:44:51;4.40;99.90
7030;DHT22;3556;53.500;10.176;2022-09-21T05:47:35;4.40;99.90
7030;DHT22;3556;53.500;10.176;2022-09-21T06:03:28;4.70;99.90
7030;DHT22;3556;53.500;10.176;2022-09-21T06:05:55;4.70;99.90
7030;DHT22;3556;53.500;10.176;2022-09-21T06:08:22;4.80;99.90
7030;DHT22;3556;53.500;10.176;2022-09-21T06:10:47;4.90;99.90
7030;DHT22;3556;53.500;10.176;2022-09-21T06:13:13;5.00;99.90
7030;DHT22;3556;53.500;10.176;2022-09-21T06:15:39;5.10;99.90
7030;DHT22;3556;53.500;10.176;2022-09-21T06:18:06;5.20;99.90
7030;DHT22;3556;53.500;10.176;2022-09-21T06:20:32;5.30;99.90
7030;DHT22;3556;53.500;10.176;2022-09-21T06:23:06;5.40;99.90
7030;DHT22;3556;53.500;10.176;2022-09-21T06:25:32;5.40;99.90
7030;DHT22;3556;53.500;10.176;2022-09-21T06:28:06;5.50;99.90
7030;DHT22;3556;53.500;10.176;2022-09-21T06:30:32;5.60;99.90
7030;DHT22;3556;53.500;10.176;2022-09-21T06:33:02;5.70;99.90
7030;DHT22;3556;53.500;10.176;2022-09-21T06:35:29;5.80;99.90
7030;DHT22;3556;53.500;10.176;2022-09-21T06:38:04;5.90;99.90
7030;DHT22;3556;53.500;10.176;2022-09-21T06:40:30;6.00;99.90
7030;DHT22;3556;53.500;10.176;2022-09-21T06:42:57;6.00;99.90
7030;DHT22;3556;53.500;10.176;2022-09-21T06:45:24;6.20;99.90
7030;DHT22;3556;53.500;10.176;2022-09-21T06:47:50;6.20;99.90
7030;DHT22;3556;53.500;10.176;2022-09-21T06:50:15;6.30;99.90
7030;DHT22;3556;53.500;10.176;2022-09-21T06:52:41;6.40;99.90
7030;DHT22;3556;53.500;10.176;2022-09-21T06:55:08;6.50;99.90
7030;DHT22;3556;53.500;10.176;2022-09-21T06:57:35;6.60;99.90
7030;DHT22;3556;53.500;10.176;2022-09-21T07:00:04;6.70;99.90
7030;DHT22;3556;53.500;10.176;2022-09-21T07:02:30;6.80;99.90
7030;DHT22;3556;53.500;10.176;2022-09-21T07:04:55;6.90;99.90
7030;DHT22;3556;53.500;10.176;2022-09-21T07:07:23;7.10;99.90
7030;DHT22;3556;53.500;10.176;2022-09-21T07:09:48;7.20;99.90
7030;DHT22;3556;53.500;10.176;2022-09-21T07:12:14;7.40;99.90
7030;DHT22;3556;53.500;10.176;2022-09-21T07:14:40;7.40;99.90
7030;DHT22;3556;53.500;10.176;2022-09-21T07:17:10;7.60;99.90
7030;DHT22;3556;53.500;10.176;2022-09-21T07:19:38;7.70;99.90
7030;DHT22;3556;53.500;10.176;2022-09-21T07:22:04;7.90;99.90
7030;DHT22;3556;53.500;10.176;2022-09-21T07:24:30;8.00;99.90
7030;DHT22;3556;53.500;10.176;2022-09-21T07:26:56;8.10;99.90
7030;DHT22;3556;53.500;10.176;2022-09-21T07:29:22;8.30;99.90
7030;DHT22;3556;53.500;10.176;2022-09-21T07:31:47;8.40;99.90
7030;DHT22;3556;53.500;10.176;2022-09-21T07:34:13;8.50;99.90
7030;DHT22;3556;53.500;10.176;2022-09-21T07:36:39;8.60;99.90
7030;DHT22;3556;53.500;10.176;2022-09-21T07:39:05;8.70;99.90
7030;DHT22;3556;53.500;10.176;2022-09-21T07:41:30;8.90;99.90
7030;DHT22;3556;53.500;10.176;2022-09-21T07:43:56;9.00;99.90
7030;DHT22;3556;53.500;10.176;2022-09-21T07:46:22;9.10;99.90
7030;DHT22;3556;53.500;10.176;2022-09-21T07:48:47;9.30;99.90
7030;DHT22;3556;53.500;10.176;2022-09-21T07:51:14;9.40;99.90
7030;DHT22;3556;53.500;10.176;2022-09-21T07:53:42;9.50;99.90
7030;DHT22;3556;53.500;10.176;2022-09-21T07:56:14;9.70;99.90
7030;DHT22;3556;53.500;10.176;2022-09-21T07:58:41;9.80;99.90
7030;DHT22;3556;53.500;10.176;2022-09-21T08:01:26;9.90;99.90
7030;DHT22;3556;53.500;10.176;2022-09-21T08:03:53;10.00;99.90
7030;DHT22;3556;53.500;10.176;2022-09-21T08:06:19;10.10;99.90
7030;DHT22;3556;53.500;10.176;2022-09-21T08:08:46;10.20;99.90
7030;DHT22;3556;53.500;10.176;2022-09-21T08:11:17;10.30;99.90
7030;DHT22;3556;53.500;10.176;2022-09-21T08:13:44;10.40;99.90
7030;DHT22;3556;53.500;10.176;2022-09-21T08:16:09;10.50;99.90
7030;DHT22;3556;53.500;10.176;2022-09-21T08:18:36;10.60;99.90
7030;DHT22;3556;53.500;10.176;2022-09-21T08:21:03;10.70;99.90
7030;DHT22;3556;53.500;10.176;2022-09-21T08:23:29;10.80;99.90
7030;DHT22;3556;53.500;10.176;2022-09-21T08:26:02;10.90;99.90
7030;DHT22;3556;53.500;10.176;2022-09-21T08:28:30;11.00;99.90
7030;DHT22;3556;53.500;10.176;2022-09-21T08:31:03;11.10;99.90
7030;DHT22;3556;53.500;10.176;2022-09-21T08:33:29;11.20;99.90
7030;DHT22;3556;53.500;10.176;2022-09-21T08:35:58;11.40;99.90
7030;DHT22;3556;53.500;10.176;2022-09-21T08:38:25;11.50;99.90
7030;DHT22;3556;53.500;10.176;2022-09-21T08:40:51;11.70;99.90
7030;DHT22;3556;53.500;10.176;2022-09-21T08:43:35;11.80;99.90
7030;DHT22;3556;53.500;10.176;2022-09-21T08:46:06;11.90;99.90
7030;DHT22;3556;53.500;10.176;2022-09-21T08:48:39;12.10;99.90
7030;DHT22;3556;53.500;10.176;2022-09-21T08:51:09;12.20;99.90
7030;DHT22;3556;53.500;10.176;2022-09-21T08:53:39;12.40;99.90
7030;DHT22;3556;53.500;10.176;2022-09-21T08:56:10;12.60;99.90
7030;DHT22;3556;53.500;10.176;2022-09-21T08:58:36;12.70;99.90
7030;DHT22;3556;53.500;10.176;2022-09-21T09:01:48;12.90;99.90
7030;DHT22;3556;53.500;10.176;2022-09-21T09:17:38;13.50;99.90
7030;DHT22;3556;53.500;10.176;2022-09-21T09:20:18;13.60;99.90
7030;DHT22;3556;53.500;10.176;2022-09-21T09:22:52;13.70;99.90
7030;DHT22;3556;53.500;10.176;2022-09-21T09:25:24;13.80;99.90
7030;DHT22;3556;53.500;10.176;2022-09-21T09:27:53;14.00;99.90
7030;DHT22;3556;53.500;10.176;2022-09-21T09:30:21;14.10;99.90
7030;DHT22;3556;53.500;10.176;2022-09-21T09:33:41;14.20;99.90
7030;DHT22;3556;53.500;10.176;2022-09-21T09:35:50;14.30;99.90
7030;DHT22;3556;53.500;10.176;2022-09-21T09:46:31;14.70;99.90
7030;DHT22;3556;53.500;10.176;2022-09-21T09:51:38;14.70;99.90
7030;DHT22;3556;53.500;10.176;2022-09-21T09:54:04;14.70;99.90
7030;DHT22;3556;53.500;10.176;2022-09-21T09:56:31;14.80;99.90
7030;DHT22;3556;53.500;10.176;2022-09-21T09:58:59;14.90;99.90
7030;DHT22;3556;53.500;10.176;2022-09-21T10:02:02;15.00;99.90
7030;DHT22;3556;53.500;10.176;2022-09-21T10:04:28;15.20;99.90
7030;DHT22;3556;53.500;10.176;2022-09-21T10:06:55;15.30;99.90
7030;DHT22;3556;53.500;10.176;2022-09-21T10:09:28;15.50;99.90
7030;DHT22;3556;53.500;10.176;2022-09-21T10:12:00;15.60;99.90
7030;DHT22;3556;53.500;10.176;2022-09-21T10:14:32;15.80;99.90
7030;DHT22;3556;53.500;10.176;2022-09-21T10:17:06;15.90;99.90
7030;DHT22;3556;53.500;10.176;2022-09-21T10:19:32;16.00;99.90
7030;DHT22;3556;53.500;10.176;2022-09-21T10:22:02;16.20;99.90
7030;DHT22;3556;53.500;10.176;2022-09-21T10:24:30;16.30;99.90
7030;DHT22;3556;53.500;10.176;2022-09-21T10:27:09;16.30;99.90
7030;DHT22;3556;53.500;10.176;2022-09-21T10:29:45;16.40;99.90
7030;DHT22;3556;53.500;10.176;2022-09-21T10:34:37;16.50;99.90
7030;DHT22;3556;53.500;10.176;2022-09-21T10:37:24;16.60;99.90
7030;DHT22;3556;53.500;10.176;2022-09-21T10:39:51;16.80;99.90
7030;DHT22;3556;53.500;10.176;2022-09-21T10:42:17;16.90;99.90
7030;DHT22;3556;53.500;10.176;2022-09-21T10:44:51;17.00;99.90
7030;DHT22;3556;53.500;10.176;2022-09-21T10:49:51;17.10;99.90
7030;DHT22;3556;53.500;10.176;2022-09-21T10:52:20;17.20;99.90
7030;DHT22;3556;53.500;10.176;2022-09-21T10:54:48;17.30;99.90
7030;DHT22;3556;53.500;10.176;2022-09-21T10:57:18;17.50;99.90
7030;DHT22;3556;53.500;10.176;2022-09-21T10:59:45;17.60;99.90
7030;DHT22;3556;53.500;10.176;2022-09-21T11:05:10;17.80;99.90
7030;DHT22;3556;53.500;10.176;2022-09-21T11:08:22;17.90;99.90
7030;DHT22;3556;53.500;10.176;2022-09-21T11:10:52;18.00;99.90
7030;DHT22;3556;53.500;10.176;2022-09-21T11:13:32;18.10;99.90
7030;DHT22;3556;53.500;10.176;2022-09-21T11:16:06;18.30;99.90
7030;DHT22;3556;53.500;10.176;2022-09-21T11:26:41;19.10;99.90
7030;DHT22;3556;53.500;10.176;2022-09-21T11:29:20;19.20;99.50
7030;DHT22;3556;53.500;10.176;2022-09-21T11:32:05;19.40;99.50
7030;DHT22;3556;53.500;10.176;2022-09-21T11:45:53;18.20;98.40
7030;DHT22;3556;53.500;10.176;2022-09-21T12:02:28;19.10;97.90
7030;DHT22;3556;53.500;10.176;2022-09-21T12:07:40;19.90;94.10
7030;DHT22;3556;53.500;10.176;2022-09-21T12:16:23;20.70;90.90
7030;DHT22;3556;53.500;10.176;2022-09-21T12:21:50;21.10;87.70
7030;DHT22;3556;53.500;10.176;2022-09-21T12:24:20;21.10;84.90
7030;DHT22;3556;53.500;10.176;2022-09-21T12:26:51;21.20;89.80
7030;DHT22;3556;53.500;10.176;2022-09-21T12:29:29;21.60;91.90
7030;DHT22;3556;53.500;10.176;2022-09-21T12:32:04;21.90;90.60
7030;DHT22;3556;53.500;10.176;2022-09-21T12:34:45;22.30;88.10
7030;DHT22;3556;53.500;10.176;2022-09-21T12:47:36;24.00;78.00
7030;DHT22;3556;53.500;10.176;2022-09-21T12:50:36;23.70;79.90
7030;DHT22;3556;53.500;10.176;2022-09-21T12:52:58;23.40;81.10
7030;DHT22;3556;53.500;10.176;2022-09-21T12:56:19;23.50;77.10
7030;DHT22;3556;53.500;10.176;2022-09-21T13:01:36;24.40;78.00
7030;DHT22;3556;53.500;10.176;2022-09-21T13:07:27;25.40;70.70
7030;DHT22;3556;53.500;10.176;2022-09-21T13:09:58;25.80;68.40
7030;DHT22;3556;53.500;10.176;2022-09-21T13:12:30;26.00;70.60
7030;DHT22;3556;53.500;10.176;2022-09-21T13:15:11;26.40;71.30
7030;DHT22;3556;53.500;10.176;2022-09-21T13:17:37;26.70;63.70
7030;DHT22;3556;53.500;10.176;2022-09-21T13:20:13;27.00;63.90
7030;DHT22;3556;53.500;10.176;2022-09-21T13:22:39;27.30;61.20
7030;DHT22;3556;53.500;10.176;2022-09-21T13:25:21;27.50;57.70
7030;DHT22;3556;53.500;10.176;2022-09-21T13:35:54;28.30;55.70
7030;DHT22;3556;53.500;10.176;2022-09-21T13:38:31;28.40;52.40
7030;DHT22;3556;53.500;10.176;2022-09-21T13:49:24;28.80;46.40
7030;DHT22;3556;53.500;10.176;2022-09-21T13:54:51;29.00;51.30
7030;DHT22;3556;53.500;10.176;2022-09-21T14:05:40;29.40;47.30
7030;DHT22;3556;53.500;10.176;2022-09-21T14:10:40;29.10;47.60
7030;DHT22;3556;53.500;10.176;2022-09-21T14:13:35;29.00;45.90
7030;DHT22;3556;53.500;10.176;2022-09-21T14:19:03;29.30;45.50
7030;DHT22;3556;53.500;10.176;2022-09-21T14:29:42;28.90;47.70
7030;DHT22;3556;53.500;10.176;2022-09-21T14:32:21;29.20;45.10
7030;DHT22;3556;53.500;10.176;2022-09-21T14:34:50;29.20;45.90
7030;DHT22;3556;53.500;10.176;2022-09-21T14:37:39;29.50;47.60
7030;DHT22;3556;53.500;10.176;2022-09-21T14:40:17;29.80;48.40
7030;DHT22;3556;53.500;10.176;2022-09-21T14:42:45;30.10;46.60
7030;DHT22;3556;53.500;10.176;2022-09-21T14:45:16;30.30;46.10
7030;DHT22;3556;53.500;10.176;2022-09-21T14:48:07;30.50;46.10
7030;DHT22;3556;53.500;10.176;2022-09-21T14:51:05;30.50;43.90
7030;DHT22;3556;53.500;10.176;2022-09-21T14:56:10;30.20;46.00
7030;DHT22;3556;53.500;10.176;2022-09-21T15:01:58;29.40;46.90
7030;DHT22;3556;53.500;10.176;2022-09-21T15:04:46;28.60;45.60
7030;DHT22;3556;53.500;10.176;2022-09-21T15:07:32;27.80;46.90
7030;DHT22;3556;53.500;10.176;2022-09-21T15:16:17;26.60;48.10
7030;DHT22;3556;53.500;10.176;2022-09-21T15:18:47;26.10;50.30
7030;DHT22;3556;53.500;10.176;2022-09-21T15:21:21;25.70;51.50
7030;DHT22;3556;53.500;10.176;2022-09-21T15:23:48;25.70;52.20
7030;DHT22;3556;53.500;10.176;2022-09-21T15:26:22;25.60;50.90
7030;DHT22;3556;53.500;10.176;2022-09-21T15:28:53;25.10;50.90
7030;DHT22;3556;53.500;10.176;2022-09-21T15:31:20;25.00;52.60
7030;DHT22;3556;53.500;10.176;2022-09-21T15:33:46;24.60;48.30
7030;DHT22;3556;53.500;10.176;2022-09-21T15:36:24;24.30;51.40
7030;DHT22;3556;53.500;10.176;2022-09-21T15:38:50;23.90;50.10
7030;DHT22;3556;53.500;10.176;2022-09-21T15:46:53;22.90;55.40
7030;DHT22;3556;53.500;10.176;2022-09-21T15:49:26;22.50;52.40
7030;DHT22;3556;53.500;10.176;2022-09-21T15:54:47;21.80;57.60
7030;DHT22;3556;53.500;10.176;2022-09-21T15:57:30;21.40;57.50
7030;DHT22;3556;53.500;10.176;2022-09-21T16:00:02;21.10;58.00
7030;DHT22;3556;53.500;10.176;2022-09-21T16:02:35;21.00;59.30
7030;DHT22;3556;53.500;10.176;2022-09-21T16:05:01;20.80;62.30
7030;DHT22;3556;53.500;10.176;2022-09-21T16:07:33;20.60;59.10
7030;DHT22;3556;53.500;10.176;2022-09-21T16:10:00;20.40;60.00
7030;DHT22;3556;53.500;10.176;2022-09-21T16:12:39;20.20;61.80
7030;DHT22;3556;53.500;10.176;2022-09-21T16:15:26;20.00;64.50
7030;DHT22;3556;53.500;10.176;2022-09-21T16:18:01;19.80;65.00
7030;DHT22;3556;53.500;10.176;2022-09-21T16:20:41;19.60;66.50
7030;DHT22;3556;53.500;10.176;2022-09-21T16:23:21;19.50;66.20
7030;DHT22;3556;53.500;10.176;2022-09-21T16:25:53;19.40;68.50
7030;DHT22;3556;53.500;10.176;2022-09-21T16:38:42;18.80;74.90
7030;DHT22;3556;53.500;10.176;2022-09-21T16:41:09;18.60;77.30
7030;DHT22;3556;53.500;10.176;2022-09-21T16:43:35;18.50;79.20
7030;DHT22;3556;53.500;10.176;2022-09-21T16:46:11;18.40;79.60
7030;DHT22;3556;53.500;10.176;2022-09-21T16:48:37;18.30;80.30
7030;DHT22;3556;53.500;10.176;2022-09-21T16:51:02;18.20;81.40
7030;DHT22;3556;53.500;10.176;2022-09-21T16:53:30;18.00;84.90
7030;DHT22;3556;53.500;10.176;2022-09-21T16:55:55;17.90;87.40
7030;DHT22;3556;53.500;10.176;2022-09-21T16:58:21;17.80;88.80
7030;DHT22;3556;53.500;10.176;2022-09-21T17:00:52;17.70;91.40
7030;DHT22;3556;53.500;10.176;2022-09-21T17:03:19;17.60;93.80
7030;DHT22;3556;53.500;10.176;2022-09-21T17:05:45;17.50;96.30
7030;DHT22;3556;53.500;10.176;2022-09-21T17:08:11;17.30;97.80
7030;DHT22;3556;53.500;10.176;2022-09-21T17:10:42;17.20;99.00
7030;DHT22;3556;53.500;10.176;2022-09-21T17:13:08;17.00;99.90
7030;DHT22;3556;53.500;10.176;2022-09-21T17:15:35;16.90;99.90
7030;DHT22;3556;53.500;10.176;2022-09-21T17:18:03;16.80;99.90
7030;DHT22;3556;53.500;10.176;2022-09-21T17:22:54;16.50;99.90
7030;DHT22;3556;53.500;10.176;2022-09-21T17:25:20;16.40;99.90
7030;DHT22;3556;53.500;10.176;2022-09-21T17:27:46;16.30;99.90
7030;DHT22;3556;53.500;10.176;2022-09-21T17:30:12;16.10;99.90
7030;DHT22;3556;53.500;10.176;2022-09-21T17:32:40;16.00;99.90
7030;DHT22;3556;53.500;10.176;2022-09-21T17:35:30;15.90;99.90
7030;DHT22;3556;53.500;10.176;2022-09-21T17:37:56;15.70;99.90
7030;DHT22;3556;53.500;10.176;2022-09-21T17:40:22;15.60;99.90
7030;DHT22;3556;53.500;10.176;2022-09-21T17:42:49;15.50;99.90
7030;DHT22;3556;53.500;10.176;2022-09-21T17:45:41;15.30;99.90
7030;DHT22;3556;53.500;10.176;2022-09-21T17:48:20;15.20;99.90
7030;DHT22;3556;53.500;10.176;2022-09-21T17:50:48;15.10;99.90
7030;DHT22;3556;53.500;10.176;2022-09-21T17:53:14;15.00;99.90
7030;DHT22;3556;53.500;10.176;2022-09-21T18:01:18;14.60;99.90
7030;DHT22;3556;53.500;10.176;2022-09-21T18:03:46;14.50;99.90
7030;DHT22;3556;53.500;10.176;2022-09-21T18:06:13;14.40;99.90
7030;DHT22;3556;53.500;10.176;2022-09-21T18:08:39;14.30;99.90
7030;DHT22;3556;53.500;10.176;2022-09-21T18:22:02;13.70;99.90
7030;DHT22;3556;53.500;10.176;2022-09-21T18:24:30;13.60;99.90
7030;DHT22;3556;53.500;10.176;2022-09-21T18:26:57;13.40;99.90
7030;DHT22;3556;53.500;10.176;2022-09-21T18:29:24;13.30;99.90
7030;DHT22;3556;53.500;10.176;2022-09-21T18:32:17;13.30;99.90
7030;DHT22;3556;53.500;10.176;2022-09-21T18:42:40;12.90;99.90
7030;DHT22;3556;53.500;10.176;2022-09-21T18:45:18;12.80;99.90
7030;DHT22;3556;53.500;10.176;2022-09-21T18:50:45;12.70;99.90
7030;DHT22;3556;53.500;10.176;2022-09-21T18:53:43;12.60;99.90
7030;DHT22;3556;53.500;10.176;2022-09-21T18:56:11;12.50;99.90
7030;DHT22;3556;53.500;10.176;2022-09-21T18:58:37;12.40;99.90
7030;DHT22;3556;53.500;10.176;2022-09-21T19:01:04;12.30;99.90
7030;DHT22;3556;53.500;10.176;2022-09-21T19:03:30;12.30;99.90
7030;DHT22;3556;53.500;10.176;2022-09-21T19:08:34;12.20;99.90
7030;DHT22;3556;53.500;10.176;2022-09-21T19:14:19;12.10;99.90
7030;DHT22;3556;53.500;10.176;2022-09-21T19:16:53;12.00;99.90
7030;DHT22;3556;53.500;10.176;2022-09-21T19:22:21;11.90;99.90
7030;DHT22;3556;53.500;10.176;2022-09-21T19:28:06;11.70;99.90
7030;DHT22;3556;53.500;10.176;2022-09-21T19:30:27;11.70;99.90
7030;DHT22;3556;53.500;10.176;2022-09-21T19:32:55;11.60;99.90
7030;DHT22;3556;53.500;10.176;2022-09-21T19:35:30;11.50;99.90
7030;DHT22;3556;53.500;10.176;2022-09-21T19:38:01;11.50;99.90
7030;DHT22;3556;53.500;10.176;2022-09-21T19:40:32;11.40;99.90
7030;DHT22;3556;53.500;10.176;2022-09-21T19:46:03;11.30;99.90
7030;DHT22;3556;53.500;10.176;2022-09-21T19:48:51;11.20;99.90
7030;DHT22;3556;53.500;10.176;2022-09-21T19:54:04;11.10;99.90
7030;DHT22;3556;53.500;10.176;2022-09-21T19:56:52;11.00;99.90
7030;DHT22;3556;53.500;10.176;2022-09-21T19:59:37;11.00;99.90
7030;DHT22;3556;53.500;10.176;2022-09-21T20:02:29;10.90;99.90
7030;DHT22;3556;53.500;10.176;2022-09-21T20:05:20;10.90;99.90
7030;DHT22;3556;53.500;10.176;2022-09-21T20:08:01;10.80;99.90
7030;DHT22;3556;53.500;10.176;2022-09-21T20:21:38;10.70;99.90
7030;DHT22;3556;53.500;10.176;2022-09-21T20:24:29;10.60;99.90
7030;DHT22;3556;53.500;10.176;2022-09-21T20:26:57;10.60;99.90
7030;DHT22;3556;53.500;10.176;2022-09-21T20:29:23;10.60;99.90
7030;DHT22;3556;53.500;10.176;2022-09-21T20:31:50;10.60;99.90
7030;DHT22;3556;53.500;10.176;2022-09-21T20:34:17;10.50;99.90
7030;DHT22;3556;53.500;10.176;2022-09-21T20:36:43;10.50;99.90
7030;DHT22;3556;53.500;10.176;2022-09-21T20:39:09;10.50;99.90